KELN/ELN METAR and TAF weather

Enter ICAO airport designator
Station Type Date Time Source
KELN METAR 2022/01/26 13:12 UTC NOAA

KELN 261312Z AUTO 31007KT 6SM HZ SCT002 OVC010 M04/M07 A3032 RMK AO2 T10391067 $


Station Type Date Time Source
KELN Decoded METAR 2022/01/26 13:12 UTC NOAA

ELLENSBURG BOWERS FIELD, WA, United States (KELN) 47-02N 120-32W 519M
Jan 26, 2022 - 08:12 AM EST / 2022.01.26 1312 UTC
Wind: from the NW (310 degrees) at 8 MPH (7 KT):0
Visibility: 6 mile(s):0
Sky conditions: overcast
Weather: haze
Temperature: 25.0 F (-3.9 C)
Windchill: 15 F (-9 C):1
Dew Point: 19.9 F (-6.7 C)
Relative Humidity: 80%
Pressure (altimeter): 30.32 in. Hg (1026 hPa)
ob: KELN 261312Z AUTO 31007KT 6SM HZ SCT002 OVC010 M04/M07 A3032 RMK AO2 T10391067
cycle: 13

Station Type Date Time Source
KELN TAF UTC NOAA

Error!

Example: see airport list